createdAt,value
2023-07-25T00:00:39.901Z,15.77
2023-07-25T00:01:39.911Z,15.74
2023-07-25T00:02:39.921Z,15.74
2023-07-25T00:03:39.912Z,15.71
2023-07-25T00:04:39.838Z,15.71
2023-07-25T00:05:39.832Z,15.78
2023-07-25T00:06:39.804Z,15.71
2023-07-25T00:07:39.810Z,15.68
2023-07-25T00:08:39.779Z,15.67
2023-07-25T00:09:39.775Z,15.68
2023-07-25T00:10:39.756Z,15.68
2023-07-25T00:11:39.753Z,15.68
2023-07-25T00:12:39.742Z,15.68
2023-07-25T00:13:39.728Z,15.73
2023-07-25T00:14:39.714Z,15.74
2023-07-25T00:15:39.714Z,15.74
2023-07-25T00:16:39.688Z,15.71
2023-07-25T00:17:39.703Z,15.66
2023-07-25T00:18:39.643Z,15.62
2023-07-25T00:19:39.652Z,15.67
2023-07-25T00:20:39.636Z,15.67
2023-07-25T00:21:39.679Z,15.64
2023-07-25T00:22:39.601Z,15.64
2023-07-25T00:23:39.592Z,15.60
2023-07-25T00:24:39.665Z,15.62
2023-07-25T00:25:39.593Z,15.60
2023-07-25T00:26:39.544Z,15.62
2023-07-25T00:27:39.542Z,15.58
2023-07-25T00:28:39.528Z,15.58
2023-07-25T00:29:39.519Z,15.58
2023-07-25T00:30:39.509Z,15.58
2023-07-25T00:31:39.506Z,15.56
2023-07-25T00:32:39.562Z,15.53
2023-07-25T00:33:39.467Z,15.51
2023-07-25T00:34:39.440Z,15.44
2023-07-25T00:35:39.442Z,15.41
2023-07-25T00:36:39.492Z,15.46
2023-07-25T00:37:39.409Z,15.52
2023-07-25T00:38:39.383Z,15.53
2023-07-25T00:39:40.344Z,15.53
2023-07-25T00:40:39.438Z,15.53
2023-07-25T00:41:39.430Z,15.53
2023-07-25T00:42:39.374Z,15.52
2023-07-25T00:43:39.361Z,15.51
2023-07-25T00:44:39.406Z,15.51
2023-07-25T00:45:39.415Z,15.49
2023-07-25T00:46:39.430Z,15.49
2023-07-25T00:47:39.411Z,15.51
2023-07-25T00:48:39.336Z,15.44
2023-07-25T00:49:39.443Z,15.44
2023-07-25T00:50:39.456Z,15.48
2023-07-25T00:51:39.306Z,15.46
2023-07-25T00:52:39.235Z,15.48
2023-07-25T00:53:39.260Z,15.52
2023-07-25T00:54:39.383Z,15.55
2023-07-25T00:55:39.323Z,15.51
2023-07-25T00:56:39.221Z,15.53
2023-07-25T00:57:39.158Z,15.51
2023-07-25T00:58:39.130Z,15.55
2023-07-25T00:59:39.283Z,15.51
2023-07-25T01:00:39.133Z,15.48
2023-07-25T01:01:39.204Z,15.48
2023-07-25T01:02:39.134Z,15.52
2023-07-25T01:03:39.201Z,15.49
2023-07-25T01:04:39.102Z,15.49
2023-07-25T01:05:39.064Z,15.48
2023-07-25T01:06:39.048Z,15.52
2023-07-25T01:07:39.012Z,15.49
2023-07-25T01:08:39.001Z,15.52
2023-07-25T01:09:39.008Z,15.48
2023-07-25T01:10:38.992Z,15.46
2023-07-25T01:11:38.974Z,15.46
2023-07-25T01:12:38.945Z,15.51
2023-07-25T01:13:38.938Z,15.49
2023-07-25T01:14:38.977Z,15.46
2023-07-25T01:15:38.934Z,15.46
2023-07-25T01:16:38.895Z,15.41
2023-07-25T01:17:38.956Z,15.38
2023-07-25T01:18:38.865Z,15.41
2023-07-25T01:19:38.865Z,15.41
2023-07-25T01:20:38.861Z,15.41
2023-07-25T01:21:38.835Z,15.41
2023-07-25T01:22:38.827Z,15.41
2023-07-25T01:23:38.815Z,15.43
2023-07-25T01:24:38.836Z,15.37
2023-07-25T01:25:38.796Z,15.38
2023-07-25T01:26:38.825Z,15.38
2023-07-25T01:27:38.757Z,15.37
2023-07-25T01:28:38.746Z,15.35
2023-07-25T01:29:38.736Z,15.35
2023-07-25T01:30:38.726Z,15.35
2023-07-25T01:31:38.714Z,15.35
2023-07-25T01:32:38.723Z,15.35
2023-07-25T01:33:38.721Z,15.34
2023-07-25T01:34:38.702Z,15.33
2023-07-25T01:35:38.674Z,15.38
2023-07-25T01:36:38.635Z,15.37
2023-07-25T01:37:38.637Z,15.34
2023-07-25T01:38:38.608Z,15.34
2023-07-25T01:39:38.609Z,15.38
2023-07-25T01:40:38.593Z,15.38
2023-07-25T01:41:38.582Z,15.38
2023-07-25T01:42:38.562Z,15.35
2023-07-25T01:43:38.563Z,15.35
2023-07-25T01:44:38.544Z,15.37
2023-07-25T01:45:38.566Z,15.37
2023-07-25T01:46:38.511Z,15.41
2023-07-25T01:47:38.514Z,15.40
2023-07-25T01:48:38.480Z,15.43
2023-07-25T01:49:38.489Z,15.41
2023-07-25T01:50:38.472Z,15.35
2023-07-25T01:51:38.461Z,15.37
2023-07-25T01:52:38.427Z,15.38
2023-07-25T01:53:38.466Z,15.40
2023-07-25T01:54:38.399Z,15.40
2023-07-25T01:55:38.431Z,15.41
2023-07-25T01:56:38.363Z,15.43
2023-07-25T01:57:38.366Z,15.43
2023-07-25T01:58:38.350Z,15.46
2023-07-25T01:59:38.345Z,15.46
2023-07-25T02:00:38.352Z,15.44
2023-07-25T02:01:38.341Z,15.46
2023-07-25T02:02:38.392Z,15.46
2023-07-25T02:03:38.298Z,15.48
2023-07-25T02:04:38.389Z,15.49
2023-07-25T02:05:38.321Z,15.46
2023-07-25T02:06:38.249Z,15.48
2023-07-25T02:07:38.241Z,15.46
2023-07-25T02:08:38.218Z,15.46
2023-07-25T02:09:38.218Z,15.49
2023-07-25T02:10:38.195Z,15.44
2023-07-25T02:11:38.188Z,15.46
2023-07-25T02:12:38.168Z,15.48
2023-07-25T02:13:38.172Z,15.46
2023-07-25T02:14:38.140Z,15.44
2023-07-25T02:15:38.150Z,15.49
2023-07-25T02:16:38.217Z,15.49
2023-07-25T02:17:38.190Z,15.48
2023-07-25T02:18:38.100Z,15.46
2023-07-25T02:19:38.094Z,15.48
2023-07-25T02:20:38.072Z,15.51
2023-07-25T02:21:38.092Z,15.49
2023-07-25T02:22:38.046Z,15.51
2023-07-25T02:23:38.047Z,15.51
2023-07-25T02:24:38.057Z,15.53
2023-07-25T02:25:38.017Z,15.53
2023-07-25T02:26:37.991Z,15.51
2023-07-25T02:27:37.979Z,15.52
2023-07-25T02:28:37.969Z,15.55
2023-07-25T02:29:37.965Z,15.53
2023-07-25T02:30:37.988Z,15.49
2023-07-25T02:31:37.965Z,15.49
2023-07-25T02:32:37.928Z,15.53
2023-07-25T02:33:37.906Z,15.55
2023-07-25T02:34:37.886Z,15.55
2023-07-25T02:35:37.885Z,15.53
2023-07-25T02:36:37.853Z,15.58
2023-07-25T02:37:37.905Z,15.58
2023-07-25T02:38:37.835Z,15.56
2023-07-25T02:39:37.831Z,15.60
2023-07-25T02:40:37.822Z,15.60
2023-07-25T02:41:37.845Z,15.58
2023-07-25T02:42:37.770Z,15.58
2023-07-25T02:43:37.796Z,15.60
2023-07-25T02:44:37.744Z,15.58
2023-07-25T02:45:37.773Z,15.64
2023-07-25T02:46:37.737Z,15.60
2023-07-25T02:47:37.729Z,15.59
2023-07-25T02:48:37.705Z,15.60
2023-07-25T02:49:37.803Z,15.62
2023-07-25T02:50:37.677Z,15.60
2023-07-25T02:51:37.661Z,15.56
2023-07-25T02:52:37.645Z,15.53
2023-07-25T02:53:37.648Z,15.53
2023-07-25T02:54:37.726Z,15.51
2023-07-25T02:55:37.610Z,15.51
2023-07-25T02:56:37.622Z,15.48
2023-07-25T02:57:37.600Z,15.49
2023-07-25T02:58:37.581Z,15.48
2023-07-25T02:59:37.562Z,15.51
2023-07-25T03:00:37.592Z,15.48
2023-07-25T03:01:37.541Z,15.46
2023-07-25T03:02:37.575Z,15.46
2023-07-25T03:03:37.506Z,15.44
2023-07-25T03:04:37.491Z,15.48
2023-07-25T03:05:37.503Z,15.41
2023-07-25T03:06:37.470Z,15.40
2023-07-25T03:07:37.465Z,15.44
2023-07-25T03:08:37.452Z,15.44
2023-07-25T03:09:37.434Z,15.43
2023-07-25T03:10:37.482Z,15.41
2023-07-25T03:11:37.400Z,15.38
2023-07-25T03:12:37.390Z,15.41
2023-07-25T03:13:37.401Z,15.40
2023-07-25T03:14:37.416Z,15.38
2023-07-25T03:15:37.397Z,15.44
2023-07-25T03:16:37.419Z,15.46
2023-07-25T03:17:37.374Z,15.43
2023-07-25T03:18:37.345Z,15.43
2023-07-25T03:19:37.345Z,15.43
2023-07-25T03:20:37.334Z,15.41
2023-07-25T03:21:37.316Z,15.43
2023-07-25T03:22:37.306Z,15.46
2023-07-25T03:23:37.246Z,15.46
2023-07-25T03:24:37.284Z,15.48
2023-07-25T03:25:37.232Z,15.48
2023-07-25T03:26:37.222Z,15.49
2023-07-25T03:27:37.208Z,15.43
2023-07-25T03:28:37.202Z,15.40
2023-07-25T03:29:37.210Z,15.37
2023-07-25T03:30:37.175Z,15.33
2023-07-25T03:31:37.151Z,15.37
2023-07-25T03:32:37.166Z,15.38
2023-07-25T03:33:37.108Z,15.37
2023-07-25T03:34:37.107Z,15.35
2023-07-25T03:35:37.090Z,15.34
2023-07-25T03:36:37.090Z,15.35
2023-07-25T03:37:37.063Z,15.34
2023-07-25T03:38:37.056Z,15.34
2023-07-25T03:39:37.040Z,15.35
2023-07-25T03:40:37.036Z,15.34
2023-07-25T03:41:37.006Z,15.35
2023-07-25T03:42:36.999Z,15.33
2023-07-25T03:43:36.986Z,15.35
2023-07-25T03:44:37.322Z,15.35
2023-07-25T03:45:36.957Z,15.37
2023-07-25T03:46:36.990Z,15.38
2023-07-25T03:47:36.966Z,15.38
2023-07-25T03:48:36.933Z,15.38
2023-07-25T03:49:36.936Z,15.35
2023-07-25T03:50:36.908Z,15.33
2023-07-25T03:51:36.885Z,15.34
2023-07-25T03:52:36.875Z,15.34
2023-07-25T03:53:36.857Z,15.31
2023-07-25T03:54:36.866Z,15.33
2023-07-25T03:55:36.859Z,15.33
2023-07-25T03:56:36.820Z,15.33
2023-07-25T03:57:36.864Z,15.30
2023-07-25T03:58:36.831Z,15.28
2023-07-25T03:59:36.808Z,15.27
2023-07-25T04:00:36.855Z,15.27
2023-07-25T04:01:36.825Z,15.27
2023-07-25T04:02:36.811Z,15.28
2023-07-25T04:03:36.801Z,15.28
2023-07-25T04:04:36.790Z,15.33
2023-07-25T04:05:36.730Z,15.30
2023-07-25T04:06:36.692Z,15.28
2023-07-25T04:07:36.669Z,15.28
2023-07-25T04:08:36.676Z,15.23
2023-07-25T04:09:36.650Z,15.23
2023-07-25T04:10:36.646Z,15.22
2023-07-25T04:11:36.625Z,15.23
2023-07-25T04:12:36.615Z,15.20
2023-07-25T04:13:36.600Z,15.19
2023-07-25T04:14:36.601Z,15.22
2023-07-25T04:15:36.582Z,15.23
2023-07-25T04:16:36.663Z,15.25
2023-07-25T04:17:36.610Z,15.23
2023-07-25T04:18:36.550Z,15.23
2023-07-25T04:19:36.518Z,15.23
2023-07-25T04:20:36.527Z,15.20
2023-07-25T04:21:36.489Z,15.23
2023-07-25T04:22:36.492Z,15.25
2023-07-25T04:23:36.478Z,15.23
2023-07-25T04:24:36.506Z,15.23
2023-07-25T04:25:36.443Z,15.23
2023-07-25T04:26:36.457Z,15.25
2023-07-25T04:27:36.401Z,15.27
2023-07-25T04:28:36.444Z,15.31
2023-07-25T04:29:36.385Z,15.30
2023-07-25T04:30:36.417Z,15.34
2023-07-25T04:31:36.370Z,15.31
2023-07-25T04:32:36.403Z,15.31
2023-07-25T04:33:36.338Z,15.31
2023-07-25T04:34:36.427Z,15.33
2023-07-25T04:35:36.324Z,15.31
2023-07-25T04:36:36.351Z,15.33
2023-07-25T04:37:36.281Z,15.35
2023-07-25T04:38:36.277Z,15.38
2023-07-25T04:39:36.253Z,15.40
2023-07-25T04:40:36.249Z,15.46
2023-07-25T04:41:36.242Z,15.58
2023-07-25T04:42:36.233Z,15.52
2023-07-25T04:43:36.222Z,15.53
2023-07-25T04:44:36.205Z,15.55
2023-07-25T04:45:36.215Z,15.56
2023-07-25T04:46:36.213Z,15.56
2023-07-25T04:47:36.197Z,15.52
2023-07-25T04:48:36.161Z,15.55
2023-07-25T04:49:36.125Z,15.58
2023-07-25T04:50:36.124Z,15.56
2023-07-25T04:51:36.112Z,15.59
2023-07-25T04:52:36.107Z,15.52
2023-07-25T04:53:36.089Z,15.48
2023-07-25T04:54:36.135Z,15.48
2023-07-25T04:55:36.070Z,15.43
2023-07-25T04:56:36.092Z,15.40
2023-07-25T04:57:36.034Z,15.37
2023-07-25T04:58:36.040Z,15.38
2023-07-25T04:59:36.006Z,15.38
2023-07-25T05:00:36.029Z,15.43
2023-07-25T05:01:36.155Z,15.48
2023-07-25T05:02:36.053Z,15.46
2023-07-25T05:03:36.061Z,15.44
2023-07-25T05:04:35.961Z,15.46
2023-07-25T05:05:35.943Z,15.48
2023-07-25T05:06:35.921Z,15.44
2023-07-25T05:07:35.899Z,15.43
2023-07-25T05:08:35.900Z,15.41
2023-07-25T05:09:35.872Z,15.48
2023-07-25T05:10:35.869Z,15.55
2023-07-25T05:11:35.860Z,15.56
2023-07-25T05:12:35.851Z,15.58
2023-07-25T05:13:35.831Z,15.66
2023-07-25T05:14:35.825Z,15.62
2023-07-25T05:15:35.800Z,15.56
2023-07-25T05:16:35.800Z,15.59
2023-07-25T05:17:35.814Z,15.64
2023-07-25T05:18:35.779Z,15.73
2023-07-25T05:19:35.756Z,15.77
2023-07-25T05:20:35.743Z,15.77
2023-07-25T05:21:35.722Z,15.77
2023-07-25T05:22:35.746Z,15.70
2023-07-25T05:23:35.698Z,15.67
2023-07-25T05:24:35.727Z,15.66
2023-07-25T05:25:35.676Z,15.70
2023-07-25T05:26:35.680Z,15.74
2023-07-25T05:27:35.654Z,15.81
2023-07-25T05:28:35.647Z,15.89
2023-07-25T05:29:35.623Z,15.91
2023-07-25T05:30:35.625Z,15.91
2023-07-25T05:31:35.607Z,15.89
2023-07-25T05:32:37.568Z,15.84
2023-07-25T05:33:35.581Z,15.81
2023-07-25T05:34:35.621Z,15.81
2023-07-25T05:35:35.561Z,15.84
2023-07-25T05:36:35.560Z,15.85
2023-07-25T05:37:35.525Z,15.91
2023-07-25T05:38:35.525Z,15.93
2023-07-25T05:39:35.510Z,15.92
2023-07-25T05:40:35.495Z,15.89
2023-07-25T05:41:35.468Z,15.91
2023-07-25T05:42:35.469Z,15.89
2023-07-25T05:43:35.440Z,15.85
2023-07-25T05:44:35.436Z,15.85
2023-07-25T05:45:35.487Z,15.91
2023-07-25T05:46:35.412Z,15.93
2023-07-25T05:47:35.505Z,15.96
2023-07-25T05:48:35.380Z,15.88
2023-07-25T05:49:35.376Z,15.85
2023-07-25T05:50:35.377Z,15.86
2023-07-25T05:51:35.344Z,15.85
2023-07-25T05:52:35.334Z,15.92
2023-07-25T05:53:35.347Z,15.99
2023-07-25T05:54:35.353Z,16.07
2023-07-25T05:55:35.287Z,16.13
2023-07-25T05:56:35.276Z,16.17
2023-07-25T05:57:35.261Z,16.23
2023-07-25T05:58:35.239Z,16.18
2023-07-25T05:59:35.250Z,16.23
2023-07-25T06:00:35.236Z,16.26
2023-07-25T06:01:35.583Z,16.26
2023-07-25T06:02:35.266Z,16.18
2023-07-25T06:03:35.207Z,16.17
2023-07-25T06:04:35.190Z,16.18
2023-07-25T06:05:35.166Z,16.18
2023-07-25T06:06:35.161Z,16.22
2023-07-25T06:07:35.137Z,16.25
2023-07-25T06:08:35.159Z,16.32
2023-07-25T06:09:35.095Z,16.30
2023-07-25T06:10:35.113Z,16.32
2023-07-25T06:11:35.106Z,16.34
2023-07-25T06:12:35.065Z,16.41
2023-07-25T06:13:35.264Z,16.42
2023-07-25T06:14:35.051Z,16.42
2023-07-25T06:15:35.057Z,16.41
2023-07-25T06:16:35.127Z,16.42
2023-07-25T06:17:35.018Z,16.45
2023-07-25T06:18:34.994Z,16.48
2023-07-25T06:19:34.953Z,16.57
2023-07-25T06:20:34.977Z,16.63
2023-07-25T06:21:35.116Z,16.69
2023-07-25T06:22:34.944Z,16.78
2023-07-25T06:23:34.912Z,16.85
2023-07-25T06:24:34.945Z,16.91
2023-07-25T06:25:34.898Z,16.90
2023-07-25T06:26:34.894Z,16.91
2023-07-25T06:27:34.865Z,16.96
2023-07-25T06:28:34.851Z,16.99
2023-07-25T06:29:34.829Z,16.99
2023-07-25T06:30:34.842Z,16.98
2023-07-25T06:31:35.121Z,16.98
2023-07-25T06:32:34.873Z,16.95
2023-07-25T06:33:34.791Z,16.91
2023-07-25T06:34:34.778Z,16.88
2023-07-25T06:35:34.786Z,16.82
2023-07-25T06:36:34.776Z,16.72
2023-07-25T06:37:34.750Z,16.73
2023-07-25T06:38:34.733Z,16.70
2023-07-25T06:39:41.749Z,16.82
2023-07-25T06:40:34.719Z,16.91
2023-07-25T06:41:34.932Z,16.92
2023-07-25T06:42:34.685Z,17.05
2023-07-25T06:43:34.676Z,17.07
2023-07-25T06:44:34.650Z,17.17
2023-07-25T06:45:34.639Z,17.35
2023-07-25T06:46:34.650Z,17.45
2023-07-25T06:47:34.660Z,17.43
2023-07-25T06:48:34.612Z,17.42
2023-07-25T06:49:34.595Z,17.39
2023-07-25T06:50:34.607Z,17.39
2023-07-25T06:51:34.557Z,17.39
2023-07-25T06:52:34.564Z,17.30
2023-07-25T06:53:34.529Z,17.15
2023-07-25T06:54:34.523Z,17.00
2023-07-25T06:55:34.515Z,16.87
2023-07-25T06:56:34.514Z,16.87
2023-07-25T06:57:34.497Z,16.84
2023-07-25T06:58:34.474Z,16.77
2023-07-25T06:59:34.488Z,16.78
2023-07-25T07:00:34.497Z,16.75
2023-07-25T07:01:34.687Z,16.77
2023-07-25T07:02:34.472Z,16.73
2023-07-25T07:03:34.558Z,16.66
2023-07-25T07:04:34.400Z,16.66
2023-07-25T07:05:37.247Z,16.77
2023-07-25T07:06:34.369Z,16.82
2023-07-25T07:07:34.367Z,16.81
2023-07-25T07:08:34.346Z,16.81
2023-07-25T07:09:34.325Z,16.87
2023-07-25T07:10:34.341Z,16.96
2023-07-25T07:11:35.266Z,17.03
2023-07-25T07:12:34.352Z,17.14
2023-07-25T07:13:34.316Z,17.21
2023-07-25T07:14:34.273Z,17.36
2023-07-25T07:15:34.292Z,17.43
2023-07-25T07:16:34.284Z,17.53
2023-07-25T07:17:34.252Z,17.54
2023-07-25T07:18:34.214Z,17.54
2023-07-25T07:19:34.197Z,17.51
2023-07-25T07:20:35.016Z,17.47
2023-07-25T07:21:34.351Z,17.55
2023-07-25T07:22:34.172Z,17.63
2023-07-25T07:23:34.150Z,17.65
2023-07-25T07:24:34.159Z,17.73
2023-07-25T07:25:34.141Z,17.86
2023-07-25T07:26:34.118Z,18.04
2023-07-25T07:27:34.119Z,18.16
2023-07-25T07:28:34.097Z,18.17
2023-07-25T07:29:34.090Z,18.14
2023-07-25T07:30:34.104Z,18.04
2023-07-25T07:31:34.322Z,17.91
2023-07-25T07:32:34.041Z,17.65
2023-07-25T07:33:34.051Z,17.62
2023-07-25T07:34:33.988Z,17.68
2023-07-25T07:35:34.012Z,17.73
2023-07-25T07:36:33.969Z,17.74
2023-07-25T07:37:34.717Z,17.70
2023-07-25T07:38:33.954Z,17.73
2023-07-25T07:39:34.001Z,17.70
2023-07-25T07:40:33.974Z,17.71
2023-07-25T07:41:34.314Z,17.73
2023-07-25T07:42:33.903Z,17.73
2023-07-25T07:43:33.913Z,17.81
2023-07-25T07:44:33.914Z,17.95
2023-07-25T07:45:33.898Z,18.02
2023-07-25T07:46:33.864Z,17.99
2023-07-25T07:47:33.918Z,17.98
2023-07-25T07:48:33.844Z,17.98
2023-07-25T07:49:33.821Z,18.02
2023-07-25T07:50:33.828Z,18.02
2023-07-25T07:51:34.195Z,18.11
2023-07-25T07:52:42.158Z,18.16
2023-07-25T07:53:34.785Z,18.16
2023-07-25T07:54:33.739Z,18.16
2023-07-25T07:55:33.742Z,18.20
2023-07-25T07:56:33.716Z,18.26
2023-07-25T07:57:33.716Z,18.39
2023-07-25T07:58:33.700Z,18.47
2023-07-25T07:59:33.712Z,18.51
2023-07-25T08:00:33.667Z,18.50
2023-07-25T08:01:34.035Z,18.31
2023-07-25T08:02:33.675Z,18.25
2023-07-25T08:03:33.633Z,18.21
2023-07-25T08:04:33.665Z,18.19
2023-07-25T08:05:33.614Z,18.07
2023-07-25T08:06:33.591Z,18.02
2023-07-25T08:07:33.610Z,18.05
2023-07-25T08:08:33.561Z,18.11
2023-07-25T08:09:33.583Z,18.20
2023-07-25T08:10:33.556Z,18.19
2023-07-25T08:11:33.884Z,18.14
2023-07-25T08:12:33.567Z,18.26
2023-07-25T08:13:33.498Z,18.28
2023-07-25T08:14:33.491Z,18.31
2023-07-25T08:15:33.516Z,18.49
2023-07-25T08:16:33.563Z,18.53
2023-07-25T08:17:33.539Z,18.47
2023-07-25T08:18:33.467Z,18.35
2023-07-25T08:19:33.451Z,18.19
2023-07-25T08:20:33.401Z,18.02
2023-07-25T08:21:36.507Z,17.89
2023-07-25T08:22:33.382Z,17.91
2023-07-25T08:23:33.367Z,17.98
2023-07-25T08:24:33.475Z,18.17
2023-07-25T08:25:33.356Z,18.34
2023-07-25T08:26:33.341Z,18.42
2023-07-25T08:27:33.348Z,18.53
2023-07-25T08:28:33.291Z,18.64
2023-07-25T08:29:33.295Z,18.79
2023-07-25T08:30:33.275Z,18.94
2023-07-25T08:31:33.717Z,19.07
2023-07-25T08:32:33.293Z,19.12
2023-07-25T08:33:33.325Z,19.17
2023-07-25T08:34:33.212Z,19.20
2023-07-25T08:35:33.241Z,19.20
2023-07-25T08:36:33.184Z,19.07
2023-07-25T08:37:33.193Z,19.07
2023-07-25T08:38:33.198Z,19.15
2023-07-25T08:39:33.201Z,19.27
2023-07-25T08:40:33.153Z,19.25
2023-07-25T08:41:33.270Z,19.23
2023-07-25T08:42:33.170Z,19.16
2023-07-25T08:43:33.112Z,19.13
2023-07-25T08:44:33.109Z,19.17
2023-07-25T08:45:33.103Z,19.21
2023-07-25T08:46:33.097Z,19.27
2023-07-25T08:47:33.112Z,19.25
2023-07-25T08:48:33.037Z,19.25
2023-07-25T08:49:33.038Z,19.31
2023-07-25T08:50:33.053Z,19.39
2023-07-25T08:51:33.285Z,19.31
2023-07-25T08:52:33.011Z,19.32
2023-07-25T08:53:33.025Z,19.20
2023-07-25T08:54:33.002Z,19.01
2023-07-25T08:55:32.957Z,18.91
2023-07-25T08:56:32.937Z,18.83
2023-07-25T08:57:32.941Z,18.89
2023-07-25T08:58:32.926Z,18.99
2023-07-25T08:59:32.970Z,19.10
2023-07-25T09:00:32.904Z,19.24
2023-07-25T09:01:33.289Z,19.35
2023-07-25T09:02:32.908Z,19.40
2023-07-25T09:03:32.924Z,19.46
2023-07-25T09:04:32.842Z,19.43
2023-07-25T09:05:32.852Z,19.42
2023-07-25T09:06:32.900Z,19.49
2023-07-25T09:07:32.803Z,19.55
2023-07-25T09:08:32.781Z,19.62
2023-07-25T09:09:32.782Z,19.65
2023-07-25T09:10:32.755Z,19.70
2023-07-25T09:11:32.961Z,19.60
2023-07-25T09:12:33.424Z,19.52
2023-07-25T09:13:32.720Z,19.34
2023-07-25T09:14:32.696Z,19.20
2023-07-25T09:15:32.722Z,19.23
2023-07-25T09:16:32.705Z,19.28
2023-07-25T09:17:32.693Z,19.31
2023-07-25T09:18:32.660Z,19.40
2023-07-25T09:19:32.661Z,19.50
2023-07-25T09:20:32.641Z,19.46
2023-07-25T09:21:32.789Z,19.39
2023-07-25T09:22:32.593Z,19.28
2023-07-25T09:23:32.606Z,19.25
2023-07-25T09:24:32.606Z,19.24
2023-07-25T09:25:32.574Z,19.28
2023-07-25T09:26:32.569Z,19.38
2023-07-25T09:27:32.555Z,19.28
2023-07-25T09:28:32.526Z,19.13
2023-07-25T09:29:32.528Z,19.10
2023-07-25T09:30:32.512Z,19.10
2023-07-25T09:31:32.811Z,19.12
2023-07-25T09:32:32.515Z,19.27
2023-07-25T09:33:32.480Z,19.39
2023-07-25T09:34:33.521Z,19.46
2023-07-25T09:35:32.488Z,19.58
2023-07-25T09:36:32.420Z,19.70
2023-07-25T09:37:32.408Z,19.83
2023-07-25T09:38:32.401Z,19.98
2023-07-25T09:39:32.420Z,20.02
2023-07-25T09:40:32.382Z,20.10
2023-07-25T09:41:32.583Z,20.17
2023-07-25T09:42:32.348Z,20.22
2023-07-25T09:43:32.347Z,20.13
2023-07-25T09:44:32.317Z,20.08
2023-07-25T09:45:33.123Z,20.12
2023-07-25T09:46:32.308Z,20.08
2023-07-25T09:47:32.385Z,20.12
2023-07-25T09:48:32.301Z,20.16
2023-07-25T09:49:32.268Z,20.25
2023-07-25T09:50:32.297Z,20.31
2023-07-25T09:51:32.625Z,20.40
2023-07-25T09:52:32.211Z,20.58
2023-07-25T09:53:32.258Z,20.72
2023-07-25T09:54:32.242Z,20.73
2023-07-25T09:55:32.203Z,20.85
2023-07-25T09:56:32.162Z,20.82
2023-07-25T09:57:32.167Z,20.81
2023-07-25T09:58:32.160Z,20.85
2023-07-25T09:59:32.210Z,20.83
2023-07-25T10:00:32.178Z,20.71
2023-07-25T10:01:32.476Z,20.66
2023-07-25T10:02:32.132Z,20.72
2023-07-25T10:03:32.456Z,20.81
2023-07-25T10:04:32.061Z,20.83
2023-07-25T10:05:32.065Z,20.71
2023-07-25T10:06:32.036Z,20.63
2023-07-25T10:07:32.044Z,20.60
2023-07-25T10:08:32.020Z,20.38
2023-07-25T10:09:32.000Z,20.26
2023-07-25T10:10:31.996Z,20.27
2023-07-25T10:11:32.174Z,20.37
2023-07-25T10:12:31.956Z,20.37
2023-07-25T10:13:31.955Z,20.37
2023-07-25T10:14:31.924Z,20.50
2023-07-25T10:15:31.987Z,20.61
2023-07-25T10:16:31.903Z,20.69
2023-07-25T10:17:31.958Z,20.69
2023-07-25T10:18:31.883Z,20.69
2023-07-25T10:19:31.864Z,20.72
2023-07-25T10:20:31.864Z,20.64
2023-07-25T10:21:32.120Z,20.63
2023-07-25T10:22:31.826Z,20.63
2023-07-25T10:23:31.858Z,20.54
2023-07-25T10:24:31.838Z,20.60
2023-07-25T10:25:31.812Z,20.42
2023-07-25T10:26:31.799Z,20.37
2023-07-25T10:27:31.775Z,20.40
2023-07-25T10:28:31.747Z,20.51
2023-07-25T10:29:31.737Z,20.60
2023-07-25T10:30:31.747Z,20.75
2023-07-25T10:31:32.360Z,20.98
2023-07-25T10:32:31.723Z,21.08
2023-07-25T10:33:31.691Z,20.83
2023-07-25T10:34:31.664Z,20.56
2023-07-25T10:35:31.673Z,20.50
2023-07-25T10:36:31.643Z,20.48
2023-07-25T10:37:31.648Z,20.56
2023-07-25T10:38:31.612Z,20.58
2023-07-25T10:39:31.617Z,20.50
2023-07-25T10:40:31.599Z,20.63
2023-07-25T10:41:31.889Z,20.66
2023-07-25T10:42:31.588Z,20.73
2023-07-25T10:43:31.557Z,20.73
2023-07-25T10:44:31.552Z,20.76
2023-07-25T10:45:31.539Z,20.76
2023-07-25T10:46:31.564Z,20.71
2023-07-25T10:47:31.548Z,20.81
2023-07-25T10:48:31.566Z,20.90
2023-07-25T10:49:31.543Z,21.06
2023-07-25T10:50:31.473Z,21.16
2023-07-25T10:51:31.624Z,21.19
2023-07-25T10:52:31.448Z,21.06
2023-07-25T10:53:31.455Z,20.98
2023-07-25T10:54:31.422Z,20.88
2023-07-25T10:55:31.434Z,20.85
2023-07-25T10:56:31.387Z,20.87
2023-07-25T10:57:31.391Z,20.79
2023-07-25T10:58:31.366Z,20.75
2023-07-25T10:59:31.362Z,20.91
2023-07-25T11:00:31.334Z,20.96
2023-07-25T11:01:31.590Z,21.16
2023-07-25T11:02:31.331Z,21.31
2023-07-25T11:03:31.318Z,21.40
2023-07-25T11:04:31.397Z,21.43
2023-07-25T11:05:31.310Z,21.51
2023-07-25T11:06:31.259Z,21.48
2023-07-25T11:07:31.269Z,21.42
2023-07-25T11:08:31.277Z,21.38
2023-07-25T11:09:31.244Z,21.28
2023-07-25T11:10:31.227Z,21.12
2023-07-25T11:11:31.473Z,21.01
2023-07-25T11:12:31.187Z,20.94
2023-07-25T11:13:31.189Z,20.90
2023-07-25T11:14:31.170Z,20.69
2023-07-25T11:15:40.805Z,20.60
2023-07-25T11:16:32.191Z,20.40
2023-07-25T11:17:31.156Z,20.35
2023-07-25T11:18:31.153Z,20.31
2023-07-25T11:19:31.110Z,20.30
2023-07-25T11:20:31.104Z,20.37
2023-07-25T11:21:31.282Z,20.42
2023-07-25T11:22:31.065Z,20.40
2023-07-25T11:23:31.077Z,20.27
2023-07-25T11:24:31.060Z,20.26
2023-07-25T11:25:31.265Z,20.25
2023-07-25T11:26:31.109Z,20.20
2023-07-25T11:27:31.026Z,20.23
2023-07-25T11:28:30.979Z,20.26
2023-07-25T11:29:31.009Z,20.35
2023-07-25T11:30:31.068Z,20.46
2023-07-25T11:31:31.203Z,20.42
2023-07-25T11:32:30.958Z,20.20
2023-07-25T11:33:30.924Z,20.10
2023-07-25T11:34:30.900Z,20.05
2023-07-25T11:35:30.960Z,20.20
2023-07-25T11:36:30.884Z,20.31
2023-07-25T11:37:30.897Z,20.46
2023-07-25T11:38:30.866Z,20.60
2023-07-25T11:39:30.850Z,20.72
2023-07-25T11:40:30.853Z,20.64
2023-07-25T11:41:31.077Z,20.64
2023-07-25T11:42:30.815Z,20.57
2023-07-25T11:43:30.785Z,20.50
2023-07-25T11:44:30.820Z,20.33
2023-07-25T11:45:30.762Z,20.22
2023-07-25T11:46:30.826Z,20.19
2023-07-25T11:47:30.831Z,20.26
2023-07-25T11:48:30.737Z,20.41
2023-07-25T11:49:47.619Z,20.60
2023-07-25T11:50:34.553Z,20.75
2023-07-25T11:51:30.985Z,20.78
2023-07-25T11:52:30.690Z,20.91
2023-07-25T11:53:30.700Z,21.09
2023-07-25T11:54:30.664Z,21.21
2023-07-25T11:55:30.641Z,21.31
2023-07-25T11:56:30.634Z,21.19
2023-07-25T11:57:30.617Z,21.09
2023-07-25T11:58:30.640Z,21.01
2023-07-25T11:59:30.600Z,21.06
2023-07-25T12:00:30.626Z,21.08
2023-07-25T12:01:31.110Z,21.01
2023-07-25T12:02:30.602Z,21.01
2023-07-25T12:03:30.550Z,20.97
2023-07-25T12:04:30.630Z,20.88
2023-07-25T12:05:30.538Z,20.81
2023-07-25T12:06:31.012Z,20.90
2023-07-25T12:07:30.501Z,21.00
2023-07-25T12:08:30.522Z,20.96
2023-07-25T12:09:30.479Z,20.87
2023-07-25T12:10:30.470Z,20.88
2023-07-25T12:11:30.884Z,20.98
2023-07-25T12:12:30.442Z,21.15
2023-07-25T12:13:30.450Z,21.34
2023-07-25T12:14:30.422Z,21.42
2023-07-25T12:15:30.395Z,21.49
2023-07-25T12:16:31.041Z,21.45
2023-07-25T12:17:30.432Z,21.43
2023-07-25T12:18:30.403Z,21.40
2023-07-25T12:19:30.328Z,21.51
2023-07-25T12:20:30.473Z,21.63
2023-07-25T12:21:30.318Z,21.74
2023-07-25T12:22:30.308Z,21.83
2023-07-25T12:23:30.301Z,21.89
2023-07-25T12:24:30.298Z,21.93
2023-07-25T12:25:30.269Z,21.79
2023-07-25T12:26:30.304Z,21.74
2023-07-25T12:27:30.238Z,21.79
2023-07-25T12:28:30.231Z,21.81
2023-07-25T12:29:30.224Z,21.71
2023-07-25T12:30:30.210Z,21.71
2023-07-25T12:31:30.201Z,21.77
2023-07-25T12:32:30.198Z,21.99
2023-07-25T12:33:33.332Z,22.15
2023-07-25T12:34:30.152Z,22.27
2023-07-25T12:35:30.140Z,22.19
2023-07-25T12:36:30.519Z,22.11
2023-07-25T12:37:30.100Z,22.02
2023-07-25T12:38:30.094Z,22.05
2023-07-25T12:40:29.252Z,21.98
2023-07-25T12:41:29.221Z,21.94
2023-07-25T12:42:29.218Z,22.08
2023-07-25T12:43:29.223Z,22.27
2023-07-25T12:44:29.194Z,22.17
2023-07-25T12:45:29.177Z,22.08
2023-07-25T12:46:29.285Z,22.02
2023-07-25T12:47:29.208Z,22.06
2023-07-25T12:48:29.137Z,22.21
2023-07-25T12:49:29.112Z,22.41
2023-07-25T12:50:29.106Z,22.38
2023-07-25T12:51:29.326Z,22.24
2023-07-25T12:52:29.116Z,21.96
2023-07-25T12:53:29.061Z,21.83